createdAt,value
2016-04-04T00:00:00.515Z,0
2016-04-04T00:01:00.549Z,0
2016-04-04T00:02:00.395Z,0
2016-04-04T00:03:00.618Z,0
2016-04-04T00:04:00.604Z,0
2016-04-04T00:05:00.467Z,0
2016-04-04T00:06:00.640Z,0
2016-04-04T00:07:00.659Z,0
2016-04-04T00:08:00.709Z,0
2016-04-04T00:09:00.711Z,0
2016-04-04T00:10:00.761Z,0
2016-04-04T00:11:00.764Z,0
2016-04-04T00:12:00.767Z,0
2016-04-04T00:13:00.784Z,0
2016-04-04T00:14:00.834Z,0
2016-04-04T00:15:00.869Z,0
2016-04-04T00:16:00.887Z,0
2016-04-04T00:17:00.874Z,0
2016-04-04T00:18:00.751Z,0
2016-04-04T00:19:00.957Z,0
2016-04-04T00:20:15.069Z,0
2016-04-04T00:21:00.963Z,0
2016-04-04T00:22:00.966Z,0
2016-04-04T00:23:00.999Z,0
2016-04-04T00:24:01.049Z,0
2016-04-04T00:25:01.066Z,0
2016-04-04T00:26:01.085Z,0
2016-04-04T00:27:01.104Z,0
2016-04-04T00:28:01.122Z,0
2016-04-04T00:29:01.171Z,0
2016-04-04T00:30:01.174Z,0
2016-04-04T00:31:01.207Z,0
2016-04-04T00:32:01.195Z,0
2016-04-04T00:33:01.229Z,0
2016-04-04T00:34:01.263Z,0
2016-04-04T00:35:01.250Z,0
2016-04-04T00:36:01.284Z,0
2016-04-04T00:37:01.161Z,0
2016-04-04T00:38:01.336Z,0
2016-04-04T00:39:01.355Z,0
2016-04-04T00:40:01.356Z,0
2016-04-04T00:41:01.392Z,0
2016-04-04T00:42:01.425Z,0
2016-04-04T00:43:01.443Z,0
2016-04-04T00:44:01.446Z,0
2016-04-04T00:45:01.465Z,0
2016-04-04T00:46:01.514Z,0
2016-04-04T00:47:01.548Z,0
2016-04-04T00:48:01.550Z,0
2016-04-04T00:49:01.553Z,0
2016-04-04T00:50:01.618Z,0
2016-04-04T00:51:01.605Z,0
2016-04-04T00:52:01.608Z,0
2016-04-04T00:53:01.705Z,0
2016-04-04T00:54:01.660Z,0
2016-04-04T00:55:01.710Z,0
2016-04-04T00:56:01.697Z,0
2016-04-04T00:57:01.732Z,0
2016-04-04T00:58:01.749Z,0
2016-04-04T00:59:01.799Z,0
2016-04-04T01:00:01.817Z,0
2016-04-04T01:01:01.804Z,0
2016-04-04T01:02:01.838Z,0
2016-04-04T01:03:01.841Z,0
2016-04-04T01:04:01.891Z,0
2016-04-04T01:05:01.737Z,0
2016-04-04T01:06:01.756Z,0
2016-04-04T01:07:01.930Z,0
2016-04-04T01:08:01.965Z,0
2016-04-04T01:09:01.217Z,0
2016-04-04T01:10:02.017Z,0
2016-04-04T01:11:02.066Z,0
2016-04-04T01:12:02.053Z,0
2016-04-04T01:13:02.056Z,0
2016-04-04T01:14:02.073Z,0
2016-04-04T01:15:02.123Z,0
2016-04-04T01:16:02.126Z,0
2016-04-04T01:17:02.144Z,0
2016-04-04T01:18:02.178Z,0
2016-04-04T01:19:02.181Z,0
2016-04-04T01:20:02.214Z,0
2016-04-04T01:21:02.233Z,0
2016-04-04T01:22:02.267Z,0
2016-04-04T01:23:02.270Z,0
2016-04-04T01:24:02.305Z,0
2016-04-04T01:25:02.338Z,0
2016-04-04T01:26:02.356Z,0
2016-04-04T01:27:02.405Z,0
2016-04-04T01:28:02.408Z,0
2016-04-04T01:29:02.410Z,0
2016-04-04T01:30:02.257Z,0
2016-04-04T01:31:02.448Z,0
2016-04-04T01:32:02.466Z,0
2016-04-04T01:33:02.500Z,0
2016-04-04T01:34:02.502Z,0
2016-04-04T01:35:02.568Z,0
2016-04-04T01:36:02.555Z,0
2016-04-04T01:37:02.590Z,0
2016-04-04T01:38:02.623Z,0
2016-04-04T01:39:02.610Z,0
2016-04-04T01:40:02.504Z,0
2016-04-04T01:41:02.506Z,0
2016-04-04T01:42:02.681Z,0
2016-04-04T01:43:02.714Z,0
2016-04-04T01:44:02.717Z,0
2016-04-04T01:45:02.751Z,0
2016-04-04T01:46:02.769Z,0
2016-04-04T01:47:02.756Z,0
2016-04-04T01:48:02.805Z,0
2016-04-04T01:49:02.855Z,0
2016-04-04T01:50:02.858Z,0
2016-04-04T01:51:02.876Z,0
2016-04-04T01:52:02.894Z,0
2016-04-04T01:53:02.928Z,0
2016-04-04T01:54:02.946Z,0
2016-04-04T01:55:02.949Z,0
2016-04-04T01:56:02.999Z,0
2016-04-04T01:57:02.986Z,0
2016-04-04T01:58:03.051Z,0
2016-04-04T01:59:03.054Z,0
2016-04-04T02:00:03.046Z,0
2016-04-04T02:01:03.080Z,0
2016-04-04T02:02:03.115Z,0
2016-04-04T02:03:03.117Z,0
2016-04-04T02:04:03.151Z,0
2016-04-04T02:05:03.168Z,0
2016-04-04T02:06:03.203Z,0
2016-04-04T02:07:03.190Z,0
2016-04-04T02:08:03.223Z,0
2016-04-04T02:09:03.258Z,0
2016-04-04T02:10:03.276Z,0
2016-04-04T02:11:03.295Z,0
2016-04-04T02:12:03.344Z,0
2016-04-04T02:13:03.347Z,0
2016-04-04T02:14:03.350Z,0
2016-04-04T02:15:03.384Z,0
2016-04-04T02:16:03.417Z,0
2016-04-04T02:17:03.436Z,0
2016-04-04T02:18:03.438Z,0
2016-04-04T02:19:03.488Z,0
2016-04-04T02:20:03.506Z,0
2016-04-04T02:21:03.556Z,0
2016-04-04T02:22:03.544Z,0
2016-04-04T02:23:03.561Z,0
2016-04-04T02:24:03.580Z,0
2016-04-04T02:25:03.613Z,0
2016-04-04T02:26:03.632Z,0
2016-04-04T02:27:03.650Z,0
2016-04-04T02:28:03.700Z,0
2016-04-04T02:29:03.718Z,0
2016-04-04T02:30:03.736Z,0
2016-04-04T02:31:03.927Z,0
2016-04-04T02:32:03.741Z,0
2016-04-04T02:33:03.760Z,0
2016-04-04T02:34:03.794Z,0
2016-04-04T02:35:03.828Z,0
2016-04-04T02:36:03.846Z,0
2016-04-04T02:37:03.849Z,0
2016-04-04T02:38:03.867Z,0
2016-04-04T02:39:03.885Z,0
2016-04-04T02:40:03.920Z,0
2016-04-04T02:41:03.953Z,0
2016-04-04T02:42:03.987Z,0
2016-04-04T02:43:03.990Z,0
2016-04-04T02:44:04.024Z,0
2016-04-04T02:45:04.026Z,0
2016-04-04T02:46:04.045Z,0
2016-04-04T02:47:04.064Z,0
2016-04-04T02:48:04.081Z,0
2016-04-04T02:49:04.116Z,0
2016-04-04T02:50:04.133Z,0
2016-04-04T02:51:04.152Z,0
2016-04-04T02:52:04.186Z,0
2016-04-04T02:53:04.188Z,0
2016-04-04T02:54:04.207Z,0
2016-04-04T02:55:04.241Z,0
2016-04-04T02:56:04.274Z,0
2016-04-04T02:57:04.294Z,0
2016-04-04T02:58:04.296Z,0
2016-04-04T02:59:04.346Z,0
2016-04-04T03:00:04.348Z,0
2016-04-04T03:01:04.367Z,0
2016-04-04T03:02:04.385Z,0
2016-04-04T03:03:04.403Z,0
2016-04-04T03:04:04.438Z,0
2016-04-04T03:05:04.471Z,0
2016-04-04T03:06:04.490Z,0
2016-04-04T03:07:04.492Z,0
2016-04-04T03:08:04.582Z,0
2016-04-04T03:09:04.550Z,0
2016-04-04T03:10:04.571Z,0
2016-04-04T03:11:18.699Z,0
2016-04-04T03:12:04.605Z,0
2016-04-04T03:13:04.640Z,0
2016-04-04T03:14:04.626Z,0
2016-04-04T03:15:04.660Z,0
2016-04-04T03:16:04.694Z,0
2016-04-04T03:17:04.712Z,0
2016-04-04T03:18:04.746Z,0
2016-04-04T03:19:04.765Z,0
2016-04-04T03:20:04.799Z,0
2016-04-04T03:21:04.801Z,0
2016-04-04T03:22:04.867Z,0
2016-04-04T03:23:04.838Z,0
2016-04-04T03:24:04.856Z,0
2016-04-04T03:25:04.890Z,0
2016-04-04T03:26:04.909Z,0
2016-04-04T03:27:04.927Z,0
2016-04-04T03:28:04.789Z,0
2016-04-04T03:29:04.995Z,0
2016-04-04T03:30:04.997Z,0
2016-04-04T03:31:05.016Z,0
2016-04-04T03:32:05.019Z,0
2016-04-04T03:33:05.036Z,0
2016-04-04T03:34:05.074Z,0
2016-04-04T03:35:05.123Z,0
2016-04-04T03:36:05.141Z,0
2016-04-04T03:37:05.175Z,0
2016-04-04T03:38:05.163Z,0
2016-04-04T03:39:05.181Z,0
2016-04-04T03:40:05.199Z,0
2016-04-04T03:41:05.232Z,0
2016-04-04T03:42:05.236Z,0
2016-04-04T03:43:05.127Z,0
2016-04-04T03:44:05.285Z,0
2016-04-04T03:45:05.350Z,0
2016-04-04T03:46:05.338Z,0
2016-04-04T03:47:05.341Z,0
2016-04-04T03:48:05.374Z,0
2016-04-04T03:49:05.392Z,0
2016-04-04T03:50:05.427Z,0
2016-04-04T03:51:05.429Z,0
2016-04-04T03:52:05.494Z,0
2016-04-04T03:53:05.325Z,0
2016-04-04T03:54:05.500Z,0
2016-04-04T03:55:05.518Z,0
2016-04-04T03:56:05.536Z,0
2016-04-04T03:57:05.554Z,0
2016-04-04T03:58:05.589Z,0
2016-04-04T03:59:05.654Z,0
2016-04-04T04:00:05.500Z,0
2016-04-04T04:01:05.659Z,0
2016-04-04T04:02:05.678Z,0
2016-04-04T04:03:05.695Z,0
2016-04-04T04:04:05.745Z,0
2016-04-04T04:05:05.764Z,0
2016-04-04T04:06:05.767Z,0
2016-04-04T04:07:05.879Z,0
2016-04-04T04:08:05.820Z,0
2016-04-04T04:09:05.853Z,0
2016-04-04T04:10:05.840Z,0
2016-04-04T04:11:05.906Z,0
2016-04-04T04:12:05.877Z,0
2016-04-04T04:13:05.942Z,0
2016-04-04T04:14:05.945Z,0
2016-04-04T04:15:05.948Z,0
2016-04-04T04:16:05.950Z,0
2016-04-04T04:17:05.984Z,0
2016-04-04T04:18:06.019Z,0
2016-04-04T04:19:06.036Z,0
2016-04-04T04:20:06.055Z,0
2016-04-04T04:21:06.088Z,0
2016-04-04T04:22:06.077Z,0
2016-04-04T04:23:06.141Z,0
2016-04-04T04:24:06.159Z,0
2016-04-04T04:25:06.194Z,0
2016-04-04T04:26:06.180Z,0
2016-04-04T04:27:06.183Z,0
2016-04-04T04:28:06.263Z,0
2016-04-04T04:29:06.236Z,0
2016-04-04T04:30:06.269Z,0
2016-04-04T04:31:06.287Z,0
2016-04-04T04:32:06.337Z,0
2016-04-04T04:33:06.355Z,0
2016-04-04T04:34:05.577Z,0
2016-04-04T04:35:06.376Z,0
2016-04-04T04:36:06.395Z,0
2016-04-04T04:37:06.603Z,0
2016-04-04T04:38:06.431Z,0
2016-04-04T04:39:06.481Z,0
2016-04-04T04:40:06.342Z,0
2016-04-04T04:41:06.518Z,0
2016-04-04T04:42:06.505Z,0
2016-04-04T04:43:06.539Z,0
2016-04-04T04:44:06.619Z,0
2016-04-04T04:45:06.622Z,0
2016-04-04T04:46:06.641Z,0
2016-04-04T04:47:06.643Z,0
2016-04-04T04:48:06.630Z,0
2016-04-04T04:49:06.664Z,0
2016-04-04T04:50:06.714Z,0
2016-04-04T04:51:06.732Z,0
2016-04-04T04:52:06.735Z,0
2016-04-04T04:53:06.738Z,0
2016-04-04T04:54:06.771Z,0
2016-04-04T04:55:06.790Z,0
2016-04-04T04:56:06.792Z,0
2016-04-04T04:57:06.826Z,0
2016-04-04T04:58:06.844Z,0
2016-04-04T04:59:06.879Z,0
2016-04-04T05:00:06.881Z,0
2016-04-04T05:01:06.915Z,0
2016-04-04T05:02:06.949Z,0
2016-04-04T05:03:06.967Z,0
2016-04-04T05:04:06.986Z,0
2016-04-04T05:05:07.004Z,0
2016-04-04T05:06:07.007Z,0
2016-04-04T05:07:07.040Z,0
2016-04-04T05:08:07.090Z,0
2016-04-04T05:09:07.093Z,0
2016-04-04T05:10:07.095Z,5
2016-04-04T05:11:07.114Z,5
2016-04-04T05:12:07.131Z,5
2016-04-04T05:13:07.214Z,5
2016-04-04T05:14:07.200Z,5
2016-04-04T05:15:07.233Z,5
2016-04-04T05:16:07.222Z,5
2016-04-04T05:17:07.256Z,5
2016-04-04T05:18:07.258Z,5
2016-04-04T05:19:07.291Z,5
2016-04-04T05:20:07.311Z,10
2016-04-04T05:21:07.313Z,10
2016-04-04T05:22:07.362Z,10
2016-04-04T05:23:07.365Z,10
2016-04-04T05:24:07.417Z,10
2016-04-04T05:25:07.576Z,15
2016-04-04T05:26:07.424Z,15
2016-04-04T05:27:07.378Z,15
2016-04-04T05:28:07.582Z,15
2016-04-04T05:29:07.474Z,20
2016-04-04T05:30:07.493Z,20
2016-04-04T05:31:07.512Z,25
2016-04-04T05:32:07.577Z,25
2016-04-04T05:33:07.563Z,25
2016-04-04T05:34:07.566Z,30
2016-04-04T05:35:07.506Z,30
2016-04-04T05:36:07.618Z,35
2016-04-04T05:37:07.653Z,35
2016-04-04T05:38:07.656Z,40
2016-04-04T05:39:07.705Z,40
2016-04-04T05:40:07.707Z,40
2016-04-04T05:41:07.710Z,40
2016-04-04T05:42:07.744Z,40
2016-04-04T05:43:07.762Z,40
2016-04-04T05:44:07.797Z,45
2016-04-04T05:45:07.830Z,45
2016-04-04T05:46:07.834Z,45
2016-04-04T05:47:07.836Z,45
2016-04-04T05:48:07.870Z,45
2016-04-04T05:49:21.984Z,45
2016-04-04T05:50:07.906Z,45
2016-04-04T05:51:07.925Z,45
2016-04-04T05:52:07.958Z,40
2016-04-04T05:53:07.992Z,40
2016-04-04T05:54:08.026Z,40
2016-04-04T05:55:08.014Z,40
2016-04-04T05:56:08.016Z,40
2016-04-04T05:57:08.034Z,35
2016-04-04T05:58:08.069Z,35
2016-04-04T05:59:08.103Z,35
2016-04-04T06:00:08.105Z,35
2016-04-04T06:01:08.138Z,35
2016-04-04T06:02:08.157Z,35
2016-04-04T06:03:08.176Z,35
2016-04-04T06:04:08.209Z,35
2016-04-04T06:05:08.196Z,35
2016-04-04T06:06:08.215Z,40
2016-04-04T06:07:08.249Z,40
2016-04-04T06:08:08.298Z,45
2016-04-04T06:09:08.301Z,40
2016-04-04T06:10:08.304Z,45
2016-04-04T06:11:08.322Z,45
2016-04-04T06:12:08.340Z,45
2016-04-04T06:13:08.359Z,45
2016-04-04T06:14:08.392Z,45
2016-04-04T06:15:08.411Z,45
2016-04-04T06:16:08.429Z,45
2016-04-04T06:17:08.478Z,45
2016-04-04T06:18:08.497Z,45
2016-04-04T06:19:08.500Z,45
2016-04-04T06:20:08.534Z,45
2016-04-04T06:21:08.536Z,45
2016-04-04T06:22:08.602Z,40
2016-04-04T06:23:08.433Z,40
2016-04-04T06:24:08.607Z,40
2016-04-04T06:25:08.625Z,40
2016-04-04T06:26:08.643Z,40
2016-04-04T06:27:08.646Z,40
2016-04-04T06:28:08.680Z,40
2016-04-04T06:29:08.698Z,40
2016-04-04T06:30:08.733Z,40
2016-04-04T06:31:08.751Z,40
2016-04-04T06:32:08.801Z,35
2016-04-04T06:33:08.787Z,35
2016-04-04T06:34:08.791Z,35
2016-04-04T06:35:08.871Z,40
2016-04-04T06:36:08.857Z,40
2016-04-04T06:37:08.877Z,40
2016-04-04T06:38:08.879Z,40
2016-04-04T06:39:08.945Z,40
2016-04-04T06:40:08.931Z,40
2016-04-04T06:41:08.965Z,40
2016-04-04T06:42:08.984Z,40
2016-04-04T06:43:09.001Z,40
2016-04-04T06:44:09.020Z,40
2016-04-04T06:45:09.039Z,40
2016-04-04T06:46:09.073Z,40
2016-04-04T06:47:09.075Z,40
2016-04-04T06:48:09.109Z,40
2016-04-04T06:49:09.128Z,40
2016-04-04T06:50:09.130Z,40
2016-04-04T06:51:09.164Z,40
2016-04-04T06:52:09.197Z,35
2016-04-04T06:53:09.044Z,35
2016-04-04T06:54:09.219Z,40
2016-04-04T06:55:09.253Z,40
2016-04-04T06:56:09.255Z,40
2016-04-04T06:57:09.289Z,40
2016-04-04T06:58:09.308Z,40
2016-04-04T06:59:09.357Z,40
2016-04-04T07:00:09.407Z,45
2016-04-04T07:01:09.399Z,45
2016-04-04T07:02:09.386Z,45
2016-04-04T07:03:09.435Z,50
2016-04-04T07:04:09.438Z,60
2016-04-04T07:05:09.472Z,105
2016-04-04T07:06:09.476Z,80
2016-04-04T07:07:09.493Z,75
2016-04-04T07:08:09.543Z,75
2016-04-04T07:09:09.576Z,80
2016-04-04T07:10:09.595Z,80
2016-04-04T07:11:09.581Z,85
2016-04-04T07:12:09.600Z,95
2016-04-04T07:13:09.619Z,95
2016-04-04T07:14:09.652Z,95
2016-04-04T07:15:09.687Z,120
2016-04-04T07:16:09.705Z,100
2016-04-04T07:17:09.738Z,100
2016-04-04T07:18:09.772Z,105
2016-04-04T07:19:09.791Z,105
2016-04-04T07:20:09.794Z,105
2016-04-04T07:21:09.811Z,130
2016-04-04T07:22:09.831Z,160
2016-04-04T07:23:09.849Z,170
2016-04-04T07:24:09.899Z,150
2016-04-04T07:25:09.885Z,150
2016-04-04T07:26:09.763Z,155
2016-04-04T07:27:09.938Z,170
2016-04-04T07:28:10.003Z,215
2016-04-04T07:29:09.974Z,175
2016-04-04T07:30:09.992Z,275
2016-04-04T07:31:10.027Z,565
2016-04-04T07:32:10.124Z,355
2016-04-04T07:33:10.141Z,280
2016-04-04T07:34:10.096Z,230
2016-04-04T07:35:10.132Z,225
2016-04-04T07:36:10.164Z,190
2016-04-04T07:37:10.184Z,305
2016-04-04T07:38:10.186Z,280
2016-04-04T07:39:10.235Z,245
2016-04-04T07:40:10.238Z,240
2016-04-04T07:41:10.257Z,485
2016-04-04T07:42:10.290Z,400
2016-04-04T07:43:10.308Z,275
2016-04-04T07:44:10.343Z,325
2016-04-04T07:45:10.346Z,375
2016-04-04T07:46:10.411Z,305
2016-04-04T07:47:10.428Z,455
2016-04-04T07:48:10.478Z,340
2016-04-04T07:49:10.466Z,350
2016-04-04T07:50:10.469Z,495
2016-04-04T07:51:10.502Z,600
2016-04-04T07:52:10.536Z,570
2016-04-04T07:53:10.554Z,560
2016-04-04T07:54:10.589Z,765
2016-04-04T07:55:10.622Z,825
2016-04-04T07:56:10.624Z,475
2016-04-04T07:57:10.659Z,325
2016-04-04T07:58:10.677Z,285
2016-04-04T07:59:10.727Z,240
2016-04-04T08:00:10.745Z,235
2016-04-04T08:01:10.748Z,230
2016-04-04T08:02:10.828Z,215
2016-04-04T08:03:10.847Z,230
2016-04-04T08:04:10.865Z,225
2016-04-04T08:05:10.868Z,230
2016-04-04T08:06:10.887Z,230
2016-04-04T08:07:10.921Z,225
2016-04-04T08:08:10.954Z,245
2016-04-04T08:09:10.956Z,250
2016-04-04T08:10:11.006Z,260
2016-04-04T08:11:11.040Z,225
2016-04-04T08:12:11.043Z,235
2016-04-04T08:13:10.920Z,255
2016-04-04T08:14:11.095Z,260
2016-04-04T08:15:10.988Z,265
2016-04-04T08:16:11.163Z,260
2016-04-04T08:17:11.200Z,260
2016-04-04T08:18:11.234Z,235
2016-04-04T08:19:11.252Z,250
2016-04-04T08:20:11.302Z,260
2016-04-04T08:21:11.305Z,230
2016-04-04T08:22:11.322Z,260
2016-04-04T08:23:11.356Z,260
2016-04-04T08:24:11.375Z,265
2016-04-04T08:25:11.425Z,285
2016-04-04T08:26:11.443Z,285
2016-04-04T08:27:11.461Z,290
2016-04-04T08:28:11.510Z,285
2016-04-04T08:29:11.530Z,290
2016-04-04T08:30:11.579Z,280
2016-04-04T08:31:11.613Z,270
2016-04-04T08:32:11.615Z,290
2016-04-04T08:33:11.639Z,305
2016-04-04T08:34:11.661Z,280
2016-04-04T08:35:11.699Z,305
2016-04-04T08:36:11.690Z,290
2016-04-04T08:37:11.711Z,295
2016-04-04T08:38:11.725Z,295
2016-04-04T08:39:11.770Z,295
2016-04-04T08:40:11.784Z,295
2016-04-04T08:41:11.814Z,325
2016-04-04T08:42:11.843Z,360
2016-04-04T08:43:11.875Z,350
2016-04-04T08:44:11.908Z,380
2016-04-04T08:45:11.941Z,415
2016-04-04T08:46:11.942Z,405
2016-04-04T08:47:11.989Z,435
2016-04-04T08:48:11.867Z,450
2016-04-04T08:49:12.040Z,450
2016-04-04T08:50:12.073Z,460
2016-04-04T08:51:12.122Z,480
2016-04-04T08:52:12.155Z,505
2016-04-04T08:53:12.204Z,515
2016-04-04T08:54:12.207Z,685
2016-04-04T08:55:12.240Z,1260
2016-04-04T08:56:12.273Z,1530
2016-04-04T08:57:12.307Z,1435
2016-04-04T08:58:12.450Z,1155
2016-04-04T08:59:12.391Z,850
2016-04-04T09:00:12.284Z,570
2016-04-04T09:01:12.458Z,410
2016-04-04T09:02:12.476Z,380
2016-04-04T09:03:12.527Z,375
2016-04-04T09:04:12.544Z,400
2016-04-04T09:05:12.594Z,430
2016-04-04T09:06:12.502Z,445
2016-04-04T09:07:12.693Z,460
2016-04-04T09:08:12.758Z,480
2016-04-04T09:09:12.793Z,450
2016-04-04T09:10:12.795Z,445
2016-04-04T09:11:12.782Z,620
2016-04-04T09:12:12.831Z,695
2016-04-04T09:13:12.850Z,860
2016-04-04T09:14:12.915Z,715
2016-04-04T09:15:12.965Z,350
2016-04-04T09:16:12.998Z,455
2016-04-04T09:17:13.032Z,620
2016-04-04T09:18:13.098Z,290
2016-04-04T09:19:13.084Z,240
2016-04-04T09:20:13.103Z,225
2016-04-04T09:21:13.153Z,210
2016-04-04T09:22:13.186Z,210
2016-04-04T09:23:13.220Z,210
2016-04-04T09:24:13.239Z,210
2016-04-04T09:25:13.289Z,205
2016-04-04T09:26:13.322Z,205
2016-04-04T09:27:13.388Z,210
2016-04-04T09:28:13.437Z,210
2016-04-04T09:29:13.455Z,230
2016-04-04T09:30:13.474Z,220
2016-04-04T09:31:13.492Z,330
2016-04-04T09:32:13.541Z,640
2016-04-04T09:33:13.575Z,890
2016-04-04T09:34:13.594Z,790
2016-04-04T09:35:13.659Z,535
2016-04-04T09:36:13.677Z,440
2016-04-04T09:37:13.680Z,360
2016-04-04T09:38:13.746Z,345
2016-04-04T09:39:13.748Z,410
2016-04-04T09:40:13.798Z,350
2016-04-04T09:41:13.831Z,255
2016-04-04T09:42:13.849Z,380
2016-04-04T09:43:13.899Z,575
2016-04-04T09:44:14.152Z,345
2016-04-04T09:45:14.046Z,265
2016-04-04T09:46:14.048Z,270
2016-04-04T09:47:14.378Z,290
2016-04-04T09:48:14.273Z,300
2016-04-04T09:49:14.119Z,360
2016-04-04T09:50:14.137Z,505
2016-04-04T09:51:14.217Z,455
2016-04-04T09:52:14.220Z,315
2016-04-04T09:53:14.097Z,260
2016-04-04T09:54:14.272Z,250
2016-04-04T09:55:14.307Z,245
2016-04-04T09:56:14.325Z,235
2016-04-04T09:57:14.359Z,225
2016-04-04T09:58:14.424Z,235
2016-04-04T09:59:14.458Z,250
2016-04-04T10:00:14.492Z,305
2016-04-04T10:01:14.511Z,330
2016-04-04T10:02:14.545Z,330
2016-04-04T10:03:14.594Z,355
2016-04-04T10:04:14.627Z,335
2016-04-04T10:05:14.505Z,290
2016-04-04T10:06:14.711Z,285
2016-04-04T10:07:14.730Z,270
2016-04-04T10:08:14.810Z,290
2016-04-04T10:09:14.829Z,290
2016-04-04T10:10:14.867Z,300
2016-04-04T10:11:14.871Z,315
2016-04-04T10:12:14.888Z,310
2016-04-04T10:13:14.938Z,335
2016-04-04T10:14:14.987Z,325
2016-04-04T10:15:15.037Z,365
2016-04-04T10:16:15.040Z,360
2016-04-04T10:17:15.074Z,390
2016-04-04T10:18:15.108Z,420
2016-04-04T10:19:15.126Z,405
2016-04-04T10:20:15.191Z,395
2016-04-04T10:21:15.241Z,375
2016-04-04T10:22:15.259Z,350
2016-04-04T10:23:15.278Z,340
2016-04-04T10:24:15.327Z,315
2016-04-04T10:25:15.392Z,295
2016-04-04T10:26:15.395Z,290
2016-04-04T10:27:15.461Z,295
2016-04-04T10:28:15.478Z,300
2016-04-04T10:29:15.497Z,285
2016-04-04T10:30:15.530Z,260
2016-04-04T10:31:15.611Z,245
2016-04-04T10:32:15.598Z,235
2016-04-04T10:33:15.633Z,220
2016-04-04T10:34:15.683Z,225
2016-04-04T10:35:15.763Z,240
2016-04-04T10:36:15.765Z,265
2016-04-04T10:37:15.815Z,300
2016-04-04T10:38:15.817Z,310
2016-04-04T10:39:15.679Z,300
2016-04-04T10:40:15.902Z,295
2016-04-04T10:41:15.920Z,290
2016-04-04T10:42:15.985Z,280
2016-04-04T10:43:16.003Z,275
2016-04-04T10:44:16.068Z,275
2016-04-04T10:45:16.056Z,265
2016-04-04T10:46:30.230Z,275
2016-04-04T10:47:16.139Z,300
2016-04-04T10:48:16.157Z,300
2016-04-04T10:49:16.237Z,275
2016-04-04T10:50:16.272Z,250
2016-04-04T10:51:16.306Z,245
2016-04-04T10:52:16.356Z,240
2016-04-04T10:53:16.202Z,255
2016-04-04T10:54:16.392Z,265
2016-04-04T10:55:16.410Z,265
2016-04-04T10:56:16.460Z,250
2016-04-04T10:57:16.478Z,245
2016-04-04T10:58:16.512Z,245
2016-04-04T10:59:16.389Z,240
2016-04-04T11:00:16.580Z,245
2016-04-04T11:01:16.630Z,245
2016-04-04T11:02:16.680Z,235
2016-04-04T11:03:16.713Z,235
2016-04-04T11:04:16.747Z,235
2016-04-04T11:05:16.765Z,235
2016-04-04T11:06:16.816Z,230
2016-04-04T11:07:16.880Z,235
2016-04-04T11:08:16.892Z,230
2016-04-04T11:09:16.942Z,230
2016-04-04T11:10:16.929Z,230
2016-04-04T11:11:16.947Z,225
2016-04-04T11:12:17.028Z,225
2016-04-04T11:13:17.047Z,225
2016-04-04T11:14:17.065Z,210
2016-04-04T11:15:17.098Z,210
2016-04-04T11:16:17.164Z,210
2016-04-04T11:17:17.183Z,210
2016-04-04T11:18:17.201Z,210
2016-04-04T11:19:17.219Z,205
2016-04-04T11:20:17.253Z,200
2016-04-04T11:21:17.303Z,200
2016-04-04T11:22:17.337Z,195
2016-04-04T11:23:17.370Z,190
2016-04-04T11:24:17.389Z,190
2016-04-04T11:25:17.470Z,185
2016-04-04T11:26:17.472Z,185
2016-04-04T11:27:17.506Z,185
2016-04-04T11:28:17.525Z,185
2016-04-04T11:29:17.590Z,190
2016-04-04T11:30:17.639Z,190
2016-04-04T11:31:17.673Z,185
2016-04-04T11:32:17.660Z,185
2016-04-04T11:33:17.693Z,185
2016-04-04T11:34:17.743Z,185
2016-04-04T11:35:17.777Z,185
2016-04-04T11:36:17.639Z,190
2016-04-04T11:37:17.829Z,190
2016-04-04T11:38:17.885Z,185
2016-04-04T11:39:17.903Z,185
2016-04-04T11:40:17.937Z,185
2016-04-04T11:41:17.986Z,185
2016-04-04T11:42:18.036Z,190
2016-04-04T11:43:18.132Z,185
2016-04-04T11:44:18.072Z,190
2016-04-04T11:45:18.106Z,185
2016-04-04T11:46:18.139Z,190
2016-04-04T11:47:18.189Z,190
2016-04-04T11:48:17.661Z,185
2016-04-04T11:49:18.241Z,185
2016-04-04T11:50:18.275Z,185
2016-04-04T11:51:18.325Z,185
2016-04-04T11:52:18.360Z,185
2016-04-04T11:53:18.377Z,185
2016-04-04T11:54:18.397Z,180
2016-04-04T11:55:18.446Z,180
2016-04-04T11:56:18.464Z,180
2016-04-04T11:57:18.545Z,185
2016-04-04T11:58:18.563Z,185
2016-04-04T11:59:18.597Z,185
2016-04-04T12:00:18.646Z,185
2016-04-04T12:01:17.884Z,185
2016-04-04T12:02:18.855Z,185
2016-04-04T12:03:18.701Z,185
2016-04-04T12:04:18.735Z,185
2016-04-04T12:05:18.784Z,180
2016-04-04T12:06:18.818Z,185
2016-04-04T12:07:18.853Z,185
2016-04-04T12:08:18.870Z,185
2016-04-04T12:09:18.906Z,180
2016-04-04T12:10:18.939Z,180
2016-04-04T12:11:18.973Z,180
2016-04-04T12:12:19.007Z,180
2016-04-04T12:13:19.042Z,180
2016-04-04T12:14:19.106Z,175
2016-04-04T12:15:19.109Z,175
2016-04-04T12:16:19.158Z,175
2016-04-04T12:17:33.286Z,175
2016-04-04T12:18:19.242Z,180
2016-04-04T12:19:19.228Z,180
2016-04-04T12:20:19.264Z,180
2016-04-04T12:21:19.313Z,180
2016-04-04T12:22:19.331Z,180
2016-04-04T12:23:19.365Z,180
2016-04-04T12:24:19.399Z,180
2016-04-04T12:25:19.433Z,180
2016-04-04T12:26:19.483Z,180
2016-04-04T12:27:19.485Z,180
2016-04-04T12:28:19.519Z,180
2016-04-04T12:29:19.677Z,180
2016-04-04T12:30:19.790Z,180
2016-04-04T12:31:19.652Z,175
2016-04-04T12:32:19.685Z,175
2016-04-04T12:33:19.704Z,175
2016-04-04T12:34:19.753Z,175
2016-04-04T12:35:19.756Z,175
2016-04-04T12:36:19.806Z,175
2016-04-04T12:37:19.840Z,170
2016-04-04T12:38:19.873Z,170
2016-04-04T12:39:19.893Z,170
2016-04-04T12:40:19.942Z,170
2016-04-04T12:41:19.960Z,170
2016-04-04T12:42:20.010Z,170
2016-04-04T12:43:20.012Z,165
2016-04-04T12:44:20.046Z,170
2016-04-04T12:45:20.111Z,170
2016-04-04T12:46:20.130Z,170
2016-04-04T12:47:20.179Z,175
2016-04-04T12:48:20.181Z,175
2016-04-04T12:49:20.200Z,180
2016-04-04T12:50:20.234Z,175
2016-04-04T12:51:20.283Z,175
2016-04-04T12:52:20.349Z,170
2016-04-04T12:53:20.507Z,170
2016-04-04T12:54:20.416Z,170
2016-04-04T12:55:20.404Z,170
2016-04-04T12:56:20.452Z,170
2016-04-04T12:57:20.472Z,170
2016-04-04T12:58:20.505Z,170
2016-04-04T12:59:20.540Z,170
2016-04-04T13:00:20.589Z,165
2016-04-04T13:01:20.624Z,165
2016-04-04T13:02:20.626Z,165
2016-04-04T13:03:20.676Z,165
2016-04-04T13:04:20.709Z,165
2016-04-04T13:05:20.759Z,165
2016-04-04T13:06:20.762Z,165
2016-04-04T13:07:20.826Z,170
2016-04-04T13:08:20.861Z,170
2016-04-04T13:09:20.863Z,170
2016-04-04T13:10:20.898Z,170
2016-04-04T13:11:20.994Z,170
2016-04-04T13:12:20.981Z,170
2016-04-04T13:13:21.046Z,170
2016-04-04T13:14:21.048Z,170
2016-04-04T13:15:20.895Z,170
2016-04-04T13:16:20.320Z,170
2016-04-04T13:17:21.181Z,170
2016-04-04T13:18:21.153Z,170
2016-04-04T13:19:21.187Z,165
2016-04-04T13:20:21.221Z,165
2016-04-04T13:21:21.270Z,165
2016-04-04T13:22:21.272Z,165
2016-04-04T13:23:21.322Z,165
2016-04-04T13:24:21.357Z,165
2016-04-04T13:25:21.391Z,165
2016-04-04T13:26:21.424Z,160
2016-04-04T13:27:21.475Z,160
2016-04-04T13:28:21.524Z,160
2016-04-04T13:29:21.589Z,165
2016-04-04T13:30:21.545Z,165
2016-04-04T13:31:21.469Z,165
2016-04-04T13:32:21.644Z,165
2016-04-04T13:33:21.647Z,165
2016-04-04T13:34:21.680Z,165
2016-04-04T13:35:21.730Z,165
2016-04-04T13:36:21.732Z,165
2016-04-04T13:37:21.829Z,165
2016-04-04T13:38:21.801Z,170
2016-04-04T13:39:21.818Z,170
2016-04-04T13:40:21.868Z,170
2016-04-04T13:41:21.917Z,170
2016-04-04T13:42:21.967Z,170
2016-04-04T13:43:21.986Z,170
2016-04-04T13:44:22.036Z,170
2016-04-04T13:45:22.069Z,170
2016-04-04T13:46:22.134Z,175
2016-04-04T13:47:22.122Z,170
2016-04-04T13:48:22.125Z,170
2016-04-04T13:49:22.159Z,170
2016-04-04T13:50:22.208Z,170
2016-04-04T13:51:22.226Z,170
2016-04-04T13:52:22.276Z,170
2016-04-04T13:53:22.325Z,170
2016-04-04T13:54:22.375Z,165
2016-04-04T13:55:22.361Z,165
2016-04-04T13:56:22.380Z,165
2016-04-04T13:57:22.414Z,165
2016-04-04T13:58:22.448Z,160
2016-04-04T13:59:22.513Z,160
2016-04-04T14:00:22.579Z,150
2016-04-04T14:01:22.582Z,155
2016-04-04T14:02:22.600Z,155
2016-04-04T14:03:22.618Z,155
2016-04-04T14:04:22.636Z,155
2016-04-04T14:05:22.685Z,155
2016-04-04T14:06:22.720Z,155
2016-04-04T14:07:22.754Z,155
2016-04-04T14:08:22.787Z,155
2016-04-04T14:09:22.837Z,160
2016-04-04T14:10:22.887Z,155
2016-04-04T14:11:22.889Z,155